Whiting, Wisconsin
Current Conditions -  °F | °C
As of 8:55 AM on Thursday 30 Oct 2014 (Local Time) from KSTE Reporting Station
Broken Clouds Broken Clouds  
Wind Chill: 33°   Ceiling: 10000
Heat Index: 33°   Visibility: 10mi
Dew Point: 32°   Wind: 3mph
Humidity: 96%   Direction: 210°SSW
Pressure: 30.08"   Gusts: NA
Location:  44.5531°N, 89.5186°W
Report Text: KSTE 301355Z AUTO 21003KT 10SM BKN100 01/00 A3008 RMK AO2 T00050000
Loading
Personal Weather Stations






























Interactive Weather Map
Tropical Storm Tracking
New forecast layout! Learn more

10-Day Weather Forecast

Advertisements
Track Severe Weather on mobile